Terminal Aerodrome Forecast
Issued by NWS

Home | Current Version | Previous Version | Text Only | Print | Product List | Glossary On
Versions: 1 2 3 4 5 6 7 8 9 10 11 12 13 14 15 16 17 18 19 20 21 22 23 24 25 26 27 28 29 30 31 32 33 34
000
FTUS46 KEKA 040045 AAA
TAFACV
TAF AMD
KACV 040045Z 0401/0424 35009KT P6SM SCT013 SCT100
     FM040300 36006KT P6SM BKN250
     FM040700 08003KT P6SM FEW025 BKN040
     FM041100 11003KT P6SM BKN020 BKN035
     FM041700 16003KT P6SM -RA BKN025=

USA.gov is the U.S. government's official web portal to all federal, state and local government web resources and services.